createdAt,value
2022-11-19T00:00:07.610Z,117.500000
2022-11-19T00:01:01.064Z,117.500000
2022-11-19T00:02:01.248Z,117.500000
2022-11-19T00:03:01.091Z,117.500000
2022-11-19T00:04:01.405Z,120.000000
2022-11-19T00:05:05.671Z,120.000000
2022-11-19T00:06:01.300Z,122.500000
2022-11-19T00:07:01.188Z,122.500000
2022-11-19T00:08:01.185Z,122.500000
2022-11-19T00:09:01.122Z,122.500000
2022-11-19T00:10:07.021Z,122.500000
2022-11-19T00:11:04.199Z,125.000000
2022-11-19T00:12:01.248Z,125.000000
2022-11-19T00:13:01.162Z,125.000000
2022-11-19T00:14:01.247Z,122.500000
2022-11-19T00:15:05.312Z,122.500000
2022-11-19T00:16:01.331Z,122.500000
2022-11-19T00:17:01.196Z,107.500000
2022-11-19T00:18:00.293Z,107.500000
2022-11-19T00:19:00.215Z,105.000000
2022-11-19T00:20:04.803Z,105.000000
2022-11-19T00:21:00.231Z,105.000000
2022-11-19T00:22:00.335Z,105.000000
2022-11-19T00:23:00.250Z,105.000000
2022-11-19T00:24:00.325Z,105.000000
2022-11-19T00:25:04.405Z,105.000000
2022-11-19T00:26:00.323Z,105.000000
2022-11-19T00:27:00.278Z,105.000000
2022-11-19T00:28:00.406Z,105.000000
2022-11-19T00:29:00.279Z,102.500000
2022-11-19T00:30:20.010Z,102.500000
2022-11-19T00:31:00.361Z,102.500000
2022-11-19T00:32:00.360Z,102.500000
2022-11-19T00:33:00.327Z,115.000000
2022-11-19T00:34:00.659Z,115.000000
2022-11-19T00:35:03.763Z,115.000000
2022-11-19T00:36:00.575Z,107.500000
2022-11-19T00:37:00.332Z,107.500000
2022-11-19T00:38:00.529Z,107.500000
2022-11-19T00:39:00.357Z,105.000000
2022-11-19T00:40:05.115Z,105.000000
2022-11-19T00:41:00.363Z,100.000000
2022-11-19T00:42:00.433Z,100.000000
2022-11-19T00:43:00.375Z,95.000000
2022-11-19T00:44:00.625Z,95.000000
2022-11-19T00:45:03.681Z,95.000000
2022-11-19T00:46:00.918Z,95.000000
2022-11-19T00:47:00.404Z,97.500000
2022-11-19T00:48:00.524Z,97.500000
2022-11-19T00:49:00.413Z,102.500000
2022-11-19T00:50:05.259Z,102.500000
2022-11-19T00:51:00.444Z,102.500000
2022-11-19T00:52:00.553Z,92.500000
2022-11-19T00:53:00.442Z,92.500000
2022-11-19T00:54:00.559Z,90.000000
2022-11-19T00:55:03.735Z,90.000000
2022-11-19T00:56:00.535Z,85.000000
2022-11-19T00:57:00.509Z,85.000000
2022-11-19T00:58:00.709Z,85.000000
2022-11-19T00:59:00.503Z,82.500000
2022-11-19T01:00:05.244Z,82.500000
2022-11-19T01:01:00.613Z,82.500000
2022-11-19T01:02:00.623Z,117.500000
2022-11-19T01:03:00.573Z,117.500000
2022-11-19T01:04:00.668Z,90.000000
2022-11-19T01:05:03.766Z,90.000000
2022-11-19T01:06:00.665Z,100.000000
2022-11-19T01:07:00.636Z,100.000000
2022-11-19T01:08:00.654Z,100.000000
2022-11-19T01:09:00.600Z,115.000000
2022-11-19T01:10:03.955Z,115.000000
2022-11-19T01:11:00.609Z,115.000000
2022-11-19T01:12:00.698Z,110.000000
2022-11-19T01:13:00.625Z,110.000000
2022-11-19T01:14:00.687Z,110.000000
2022-11-19T01:15:04.749Z,102.500000
2022-11-19T01:16:00.733Z,102.500000
2022-11-19T01:17:00.640Z,110.000000
2022-11-19T01:18:00.728Z,110.000000
2022-11-19T01:19:00.659Z,110.000000
2022-11-19T01:20:05.124Z,110.000000
2022-11-19T01:21:00.708Z,110.000000
2022-11-19T01:22:00.746Z,110.000000
2022-11-19T01:23:00.696Z,110.000000
2022-11-19T01:24:00.896Z,110.000000
2022-11-19T01:25:03.689Z,110.000000
2022-11-19T01:26:00.773Z,110.000000
2022-11-19T01:27:00.776Z,105.000000
2022-11-19T01:28:00.798Z,105.000000
2022-11-19T01:29:00.725Z,97.500000
2022-11-19T01:30:05.112Z,97.500000
2022-11-19T01:31:00.759Z,97.500000
2022-11-19T01:32:00.858Z,122.500000
2022-11-19T01:33:00.812Z,122.500000
2022-11-19T01:34:00.845Z,122.500000
2022-11-19T01:35:03.823Z,120.000000
2022-11-19T01:36:00.865Z,120.000000
2022-11-19T01:37:00.804Z,80.000000
2022-11-19T01:38:00.878Z,80.000000
2022-11-19T01:39:00.948Z,80.000000
2022-11-19T01:40:05.700Z,97.500000
2022-11-19T01:41:00.877Z,97.500000
2022-11-19T01:42:00.923Z,110.000000
2022-11-19T01:43:00.829Z,110.000000
2022-11-19T01:44:00.908Z,92.500000
2022-11-19T01:45:05.974Z,92.500000
2022-11-19T01:46:00.912Z,92.500000
2022-11-19T01:47:00.854Z,97.500000
2022-11-19T01:48:00.986Z,97.500000
2022-11-19T01:49:00.870Z,105.000000
2022-11-19T01:50:04.250Z,105.000000
2022-11-19T01:51:01.016Z,105.000000
2022-11-19T01:52:00.981Z,92.500000
2022-11-19T01:53:00.894Z,92.500000
2022-11-19T01:54:00.986Z,92.500000
2022-11-19T01:55:04.032Z,110.000000
2022-11-19T01:56:00.992Z,110.000000
2022-11-19T01:57:00.963Z,110.000000
2022-11-19T01:58:00.998Z,110.000000
2022-11-19T01:59:00.940Z,110.000000
2022-11-19T02:00:07.463Z,65.000000
2022-11-19T02:01:01.026Z,65.000000
2022-11-19T02:02:01.059Z,32.500000
2022-11-19T02:03:01.210Z,32.500000
2022-11-19T02:04:01.084Z,32.500000
2022-11-19T02:05:04.185Z,100.000000
2022-11-19T02:06:01.080Z,100.000000
2022-11-19T02:07:01.089Z,100.000000
2022-11-19T02:08:01.247Z,110.000000
2022-11-19T02:09:01.108Z,110.000000
2022-11-19T02:10:07.605Z,105.000000
2022-11-19T02:11:01.049Z,105.000000
2022-11-19T02:12:01.150Z,105.000000
2022-11-19T02:13:01.065Z,120.000000
2022-11-19T02:14:01.165Z,120.000000
2022-11-19T02:15:05.256Z,120.000000
2022-11-19T02:16:01.162Z,120.000000
2022-11-19T02:17:01.092Z,120.000000
2022-11-19T02:18:01.195Z,110.000000
2022-11-19T02:19:01.102Z,110.000000
2022-11-19T02:20:05.624Z,115.000000
2022-11-19T02:21:01.148Z,115.000000
2022-11-19T02:22:01.208Z,115.000000
2022-11-19T02:23:01.129Z,115.000000
2022-11-19T02:24:01.210Z,115.000000
2022-11-19T02:25:05.664Z,117.500000
2022-11-19T02:26:01.249Z,117.500000
2022-11-19T02:27:01.171Z,117.500000
2022-11-19T02:28:01.227Z,102.500000
2022-11-19T02:29:01.310Z,102.500000
2022-11-19T02:30:07.176Z,102.500000
2022-11-19T02:31:00.272Z,105.000000
2022-11-19T02:32:00.287Z,105.000000
2022-11-19T02:33:00.242Z,127.500000
2022-11-19T02:34:00.280Z,127.500000
2022-11-19T02:35:03.143Z,127.500000
2022-11-19T02:36:00.323Z,130.000000
2022-11-19T02:37:00.235Z,130.000000
2022-11-19T02:38:00.443Z,125.000000
2022-11-19T02:39:00.290Z,125.000000
2022-11-19T02:40:05.595Z,125.000000
2022-11-19T02:41:00.259Z,132.500000
2022-11-19T02:42:00.344Z,132.500000
2022-11-19T02:43:00.285Z,125.000000
2022-11-19T02:44:00.347Z,125.000000
2022-11-19T02:45:04.427Z,125.000000
2022-11-19T02:46:00.361Z,125.000000
2022-11-19T02:47:00.299Z,125.000000
2022-11-19T02:48:00.392Z,115.000000
2022-11-19T02:49:00.313Z,115.000000
2022-11-19T02:50:04.658Z,115.000000
2022-11-19T02:51:00.329Z,117.500000
2022-11-19T02:52:00.423Z,117.500000
2022-11-19T02:53:00.340Z,117.500000
2022-11-19T02:54:00.410Z,117.500000
2022-11-19T02:55:03.095Z,117.500000
2022-11-19T02:56:00.538Z,122.500000
2022-11-19T02:57:00.388Z,122.500000
2022-11-19T02:58:00.440Z,102.500000
2022-11-19T02:59:00.370Z,102.500000
2022-11-19T03:00:04.748Z,105.000000
2022-11-19T03:01:00.518Z,105.000000
2022-11-19T03:02:00.505Z,105.000000
2022-11-19T03:03:00.494Z,117.500000
2022-11-19T03:04:00.494Z,117.500000
2022-11-19T03:05:04.556Z,117.500000
2022-11-19T03:06:16.096Z,112.500000
2022-11-19T03:07:00.464Z,112.500000
2022-11-19T03:08:00.626Z,127.500000
2022-11-19T03:09:00.474Z,127.500000
2022-11-19T03:10:05.127Z,122.500000
2022-11-19T03:11:00.467Z,122.500000
2022-11-19T03:12:00.549Z,122.500000
2022-11-19T03:13:00.496Z,122.500000
2022-11-19T03:14:00.572Z,122.500000
2022-11-19T03:15:05.407Z,122.500000
2022-11-19T03:16:00.598Z,130.000000
2022-11-19T03:17:00.506Z,130.000000
2022-11-19T03:18:00.585Z,130.000000
2022-11-19T03:19:00.608Z,127.500000
2022-11-19T03:20:06.915Z,127.500000
2022-11-19T03:21:00.650Z,117.500000
2022-11-19T03:22:00.616Z,117.500000
2022-11-19T03:23:00.597Z,115.000000
2022-11-19T03:24:00.725Z,115.000000
2022-11-19T03:25:03.675Z,115.000000
2022-11-19T03:26:00.683Z,127.500000
2022-11-19T03:27:00.613Z,127.500000
2022-11-19T03:28:00.690Z,120.000000
2022-11-19T03:29:00.616Z,120.000000
2022-11-19T03:30:05.634Z,120.000000
2022-11-19T03:31:00.615Z,115.000000
2022-11-19T03:32:00.721Z,115.000000
2022-11-19T03:33:00.656Z,115.000000
2022-11-19T03:34:00.709Z,115.000000
2022-11-19T03:35:05.127Z,115.000000
2022-11-19T03:36:00.756Z,107.500000
2022-11-19T03:37:00.857Z,107.500000
2022-11-19T03:38:00.786Z,120.000000
2022-11-19T03:39:00.728Z,120.000000
2022-11-19T03:40:03.986Z,120.000000
2022-11-19T03:41:00.708Z,117.500000
2022-11-19T03:42:00.793Z,117.500000
2022-11-19T03:43:00.713Z,120.000000
2022-11-19T03:44:00.815Z,120.000000
2022-11-19T03:45:04.210Z,120.000000
2022-11-19T03:46:00.809Z,107.500000
2022-11-19T03:47:00.741Z,107.500000
2022-11-19T03:48:00.828Z,107.500000
2022-11-19T03:49:00.774Z,110.000000
2022-11-19T03:50:05.356Z,110.000000
2022-11-19T03:51:00.794Z,125.000000
2022-11-19T03:52:00.861Z,125.000000
2022-11-19T03:53:04.369Z,125.000000
2022-11-19T03:54:00.874Z,120.000000
2022-11-19T03:55:03.820Z,120.000000
2022-11-19T03:56:00.936Z,120.000000
2022-11-19T03:57:00.821Z,120.000000
2022-11-19T03:58:00.904Z,120.000000
2022-11-19T03:59:00.832Z,115.000000
2022-11-19T04:00:05.273Z,115.000000
2022-11-19T04:01:00.882Z,120.000000
2022-11-19T04:02:01.009Z,120.000000
2022-11-19T04:03:00.950Z,120.000000
2022-11-19T04:04:00.943Z,122.500000
2022-11-19T04:05:04.333Z,122.500000
2022-11-19T04:06:01.005Z,117.500000
2022-11-19T04:07:00.976Z,117.500000
2022-11-19T04:08:01.003Z,107.500000
2022-11-19T04:09:00.933Z,112.500000
2022-11-19T04:10:05.336Z,112.500000
2022-11-19T04:12:01.153Z,122.500000
2022-11-19T04:13:00.947Z,122.500000
2022-11-19T04:14:01.067Z,125.000000
2022-11-19T04:15:03.795Z,125.000000
2022-11-19T04:16:01.038Z,125.000000
2022-11-19T04:17:00.993Z,117.500000
2022-11-19T04:18:01.097Z,117.500000
2022-11-19T04:19:00.991Z,122.500000
2022-11-19T04:20:05.506Z,122.500000
2022-11-19T04:21:01.073Z,122.500000
2022-11-19T04:22:01.134Z,112.500000
2022-11-19T04:23:01.037Z,112.500000
2022-11-19T04:24:01.167Z,127.500000
2022-11-19T04:25:04.167Z,127.500000
2022-11-19T04:26:01.148Z,127.500000
2022-11-19T04:27:01.172Z,120.000000
2022-11-19T04:28:01.161Z,120.000000
2022-11-19T04:29:01.108Z,125.000000
2022-11-19T04:30:06.086Z,125.000000
2022-11-19T04:31:01.154Z,125.000000
2022-11-19T04:32:01.216Z,125.000000
2022-11-19T04:33:01.127Z,125.000000
2022-11-19T04:34:01.175Z,127.500000
2022-11-19T04:35:04.167Z,127.500000
2022-11-19T04:36:01.307Z,127.500000
2022-11-19T04:37:01.129Z,122.500000
2022-11-19T04:38:01.228Z,122.500000
2022-11-19T04:39:01.157Z,117.500000
2022-11-19T04:40:05.488Z,117.500000
2022-11-19T04:41:01.159Z,127.500000
2022-11-19T04:42:01.244Z,127.500000
2022-11-19T04:43:01.174Z,127.500000
2022-11-19T04:44:00.293Z,120.000000
2022-11-19T04:45:03.008Z,120.000000
2022-11-19T04:46:00.304Z,120.000000
2022-11-19T04:47:00.221Z,130.000000
2022-11-19T04:48:00.286Z,130.000000
2022-11-19T04:49:00.212Z,125.000000
2022-11-19T04:50:04.583Z,125.000000
2022-11-19T04:51:00.297Z,115.000000
2022-11-19T04:52:00.294Z,115.000000
2022-11-19T04:53:00.273Z,115.000000
2022-11-19T04:54:00.312Z,120.000000
2022-11-19T04:55:04.545Z,120.000000
2022-11-19T04:56:00.338Z,120.000000
2022-11-19T04:57:00.283Z,120.000000
2022-11-19T04:58:00.355Z,120.000000
2022-11-19T04:59:00.270Z,120.000000
2022-11-19T05:00:06.624Z,120.000000
2022-11-19T05:01:00.319Z,120.000000
2022-11-19T05:02:00.483Z,125.000000
2022-11-19T05:03:00.335Z,125.000000
2022-11-19T05:04:00.400Z,125.000000
2022-11-19T05:05:03.645Z,132.500000
2022-11-19T05:06:00.432Z,132.500000
2022-11-19T05:07:00.408Z,127.500000
2022-11-19T05:08:00.476Z,127.500000
2022-11-19T05:09:00.395Z,127.500000
2022-11-19T05:10:04.682Z,120.000000
2022-11-19T05:11:00.402Z,120.000000
2022-11-19T05:12:00.489Z,125.000000
2022-11-19T05:13:00.435Z,125.000000
2022-11-19T05:14:00.581Z,122.500000
2022-11-19T05:15:03.722Z,122.500000
2022-11-19T05:16:00.521Z,122.500000
2022-11-19T05:17:00.443Z,115.000000
2022-11-19T05:18:00.535Z,115.000000
2022-11-19T05:19:00.451Z,115.000000
2022-11-19T05:20:05.090Z,117.500000
2022-11-19T05:21:00.490Z,117.500000
2022-11-19T05:22:00.541Z,120.000000
2022-11-19T05:23:00.493Z,120.000000
2022-11-19T05:24:00.566Z,120.000000
2022-11-19T05:25:05.821Z,125.000000
2022-11-19T05:26:00.676Z,125.000000
2022-11-19T05:27:00.520Z,125.000000
2022-11-19T05:28:00.580Z,125.000000
2022-11-19T05:29:00.532Z,125.000000
2022-11-19T05:30:04.926Z,112.500000
2022-11-19T05:31:00.598Z,112.500000
2022-11-19T05:32:00.610Z,112.500000
2022-11-19T05:33:00.590Z,125.000000
2022-11-19T05:34:00.637Z,125.000000
2022-11-19T05:35:03.714Z,130.000000
2022-11-19T05:36:00.667Z,130.000000
2022-11-19T05:37:00.629Z,127.500000
2022-11-19T05:38:00.675Z,127.500000
2022-11-19T05:39:00.610Z,127.500000
2022-11-19T05:40:04.082Z,127.500000
2022-11-19T05:41:00.619Z,127.500000
2022-11-19T05:42:00.696Z,127.500000
2022-11-19T05:43:00.674Z,122.500000
2022-11-19T05:44:00.704Z,122.500000
2022-11-19T05:45:03.649Z,125.000000
2022-11-19T05:46:00.754Z,125.000000
2022-11-19T05:47:00.661Z,125.000000
2022-11-19T05:48:00.752Z,125.000000
2022-11-19T05:49:00.709Z,125.000000
2022-11-19T05:50:05.112Z,115.000000
2022-11-19T05:51:00.694Z,115.000000
2022-11-19T05:52:00.770Z,115.000000
2022-11-19T05:53:00.717Z,122.500000
2022-11-19T05:54:00.851Z,122.500000
2022-11-19T05:55:07.349Z,110.000000
2022-11-19T05:56:00.787Z,115.000000
2022-11-19T05:57:00.731Z,115.000000
2022-11-19T05:58:00.799Z,125.000000
2022-11-19T05:59:00.739Z,125.000000
2022-11-19T06:00:07.239Z,120.000000
2022-11-19T06:01:00.772Z,120.000000
2022-11-19T06:02:00.858Z,120.000000
2022-11-19T06:03:00.833Z,127.500000
2022-11-19T06:04:00.851Z,127.500000
2022-11-19T06:05:04.435Z,115.000000
2022-11-19T06:06:00.892Z,115.000000
2022-11-19T06:07:00.863Z,115.000000
2022-11-19T06:08:00.868Z,122.500000
2022-11-19T06:09:00.820Z,122.500000
2022-11-19T06:10:18.749Z,120.000000
2022-11-19T06:11:00.838Z,120.000000
2022-11-19T06:12:00.898Z,120.000000
2022-11-19T06:13:00.871Z,127.500000
2022-11-19T06:14:00.937Z,127.500000
2022-11-19T06:15:05.072Z,127.500000
2022-11-19T06:16:00.946Z,117.500000
2022-11-19T06:17:00.921Z,117.500000
2022-11-19T06:18:01.379Z,112.500000
2022-11-19T06:19:01.065Z,112.500000
2022-11-19T06:20:06.031Z,122.500000
2022-11-19T06:21:00.940Z,122.500000
2022-11-19T06:22:01.147Z,120.000000
2022-11-19T06:23:00.921Z,120.000000
2022-11-19T06:24:01.098Z,120.000000
2022-11-19T06:25:03.845Z,130.000000
2022-11-19T06:26:01.007Z,130.000000
2022-11-19T06:27:00.970Z,130.000000
2022-11-19T06:28:01.033Z,125.000000
2022-11-19T06:29:00.974Z,125.000000
2022-11-19T06:30:04.869Z,120.000000
2022-11-19T06:31:01.000Z,120.000000
2022-11-19T06:32:01.075Z,130.000000
2022-11-19T06:33:01.024Z,130.000000
2022-11-19T06:34:01.102Z,130.000000
2022-11-19T06:35:03.913Z,120.000000
2022-11-19T06:36:01.134Z,120.000000
2022-11-19T06:37:01.031Z,120.000000
2022-11-19T06:38:01.124Z,125.000000
2022-11-19T06:39:01.074Z,125.000000
2022-11-19T06:40:04.571Z,125.000000
2022-11-19T06:41:01.173Z,125.000000
2022-11-19T06:42:01.164Z,125.000000
2022-11-19T06:43:01.115Z,127.500000
2022-11-19T06:44:01.194Z,127.500000
2022-11-19T06:45:07.622Z,127.500000
2022-11-19T06:46:01.213Z,105.000000
2022-11-19T06:47:01.166Z,105.000000
2022-11-19T06:48:01.216Z,115.000000
2022-11-19T06:49:01.189Z,115.000000
2022-11-19T06:50:18.864Z,115.000000
2022-11-19T06:51:00.167Z,117.500000
2022-11-19T06:52:00.251Z,117.500000
2022-11-19T06:53:00.278Z,117.500000
2022-11-19T06:54:00.268Z,117.500000
2022-11-19T06:55:04.488Z,122.500000
2022-11-19T06:56:00.291Z,122.500000
2022-11-19T06:57:00.221Z,122.500000
2022-11-19T06:58:00.291Z,105.000000
2022-11-19T06:59:00.248Z,105.000000
2022-11-19T07:00:04.826Z,105.000000
2022-11-19T07:01:00.276Z,115.000000
2022-11-19T07:02:00.417Z,115.000000
2022-11-19T07:03:00.303Z,125.000000
2022-11-19T07:04:00.369Z,125.000000
2022-11-19T07:05:06.780Z,117.500000
2022-11-19T07:06:00.394Z,117.500000
2022-11-19T07:07:00.395Z,117.500000
2022-11-19T07:08:03.253Z,117.500000
2022-11-19T07:09:00.336Z,110.000000
2022-11-19T07:10:12.253Z,110.000000
2022-11-19T07:11:00.349Z,115.000000
2022-11-19T07:12:00.425Z,115.000000
2022-11-19T07:13:00.488Z,115.000000
2022-11-19T07:14:00.597Z,115.000000
2022-11-19T07:15:07.720Z,115.000000
2022-11-19T07:16:00.496Z,115.000000
2022-11-19T07:17:00.413Z,115.000000
2022-11-19T07:18:00.498Z,115.000000
2022-11-19T07:19:00.429Z,115.000000
2022-11-19T07:20:06.799Z,115.000000
2022-11-19T07:21:00.591Z,115.000000
2022-11-19T07:22:00.583Z,115.000000
2022-11-19T07:23:00.464Z,115.000000
2022-11-19T07:24:00.547Z,112.500000
2022-11-19T07:25:03.818Z,112.500000
2022-11-19T07:26:00.551Z,132.500000
2022-11-19T07:27:00.493Z,132.500000
2022-11-19T07:28:00.607Z,125.000000
2022-11-19T07:29:04.393Z,125.000000
2022-11-19T07:30:04.866Z,125.000000
2022-11-19T07:31:00.520Z,120.000000
2022-11-19T07:32:00.595Z,120.000000
2022-11-19T07:33:00.541Z,120.000000
2022-11-19T07:34:00.672Z,120.000000
2022-11-19T07:35:03.763Z,120.000000
2022-11-19T07:36:00.637Z,122.500000
2022-11-19T07:37:00.584Z,122.500000
2022-11-19T07:38:00.728Z,122.500000
2022-11-19T07:39:00.639Z,115.000000
2022-11-19T07:40:04.857Z,115.000000
2022-11-19T07:41:00.743Z,115.000000
2022-11-19T07:42:00.670Z,112.500000
2022-11-19T07:43:00.610Z,112.500000
2022-11-19T07:44:00.691Z,110.000000
2022-11-19T07:45:06.785Z,110.000000
2022-11-19T07:46:00.804Z,110.000000
2022-11-19T07:47:00.639Z,120.000000
2022-11-19T07:48:00.707Z,120.000000
2022-11-19T07:49:00.667Z,107.500000
2022-11-19T07:50:06.231Z,107.500000
2022-11-19T07:51:00.694Z,107.500000
2022-11-19T07:52:00.722Z,120.000000
2022-11-19T07:53:00.767Z,120.000000
2022-11-19T07:54:00.764Z,115.000000
2022-11-19T07:55:03.760Z,115.000000
2022-11-19T07:56:00.773Z,115.000000
2022-11-19T07:57:00.765Z,130.000000
2022-11-19T07:58:00.799Z,130.000000
2022-11-19T07:59:00.743Z,122.500000
2022-11-19T08:00:07.678Z,122.500000
2022-11-19T08:01:00.811Z,122.500000
2022-11-19T08:02:00.877Z,112.500000
2022-11-19T08:03:00.819Z,112.500000
2022-11-19T08:04:00.857Z,120.000000
2022-11-19T08:05:09.277Z,120.000000
2022-11-19T08:06:00.876Z,120.000000
2022-11-19T08:07:00.884Z,125.000000
2022-11-19T08:08:00.877Z,125.000000
2022-11-19T08:09:00.878Z,125.000000
2022-11-19T08:10:05.553Z,125.000000
2022-11-19T08:11:00.841Z,112.500000
2022-11-19T08:12:00.923Z,112.500000
2022-11-19T08:13:00.849Z,112.500000
2022-11-19T08:14:00.969Z,122.500000
2022-11-19T08:15:03.886Z,122.500000
2022-11-19T08:16:00.959Z,122.500000
2022-11-19T08:17:00.883Z,122.500000
2022-11-19T08:18:01.030Z,122.500000
2022-11-19T08:19:00.911Z,115.000000
2022-11-19T08:20:05.047Z,115.000000
2022-11-19T08:21:00.949Z,120.000000
2022-11-19T08:22:00.979Z,120.000000
2022-11-19T08:23:00.938Z,120.000000
2022-11-19T08:24:01.018Z,105.000000
2022-11-19T08:25:05.514Z,105.000000
2022-11-19T08:26:01.026Z,105.000000
2022-11-19T08:27:00.960Z,120.000000
2022-11-19T08:28:01.064Z,120.000000
2022-11-19T08:29:00.981Z,125.000000
2022-11-19T08:30:06.306Z,125.000000
2022-11-19T08:31:01.019Z,127.500000
2022-11-19T08:32:01.065Z,127.500000
2022-11-19T08:33:01.039Z,127.500000
2022-11-19T08:34:01.080Z,122.500000
2022-11-19T08:35:05.202Z,122.500000
2022-11-19T08:36:01.122Z,122.500000
2022-11-19T08:37:01.052Z,120.000000
2022-11-19T08:38:01.080Z,120.000000
2022-11-19T08:39:01.038Z,120.000000
2022-11-19T08:40:05.394Z,127.500000
2022-11-19T08:41:01.195Z,127.500000
2022-11-19T08:42:01.165Z,115.000000
2022-11-19T08:43:01.088Z,115.000000
2022-11-19T08:44:01.125Z,112.500000
2022-11-19T08:45:05.187Z,112.500000
2022-11-19T08:46:01.147Z,112.500000
2022-11-19T08:47:01.083Z,127.500000
2022-11-19T08:48:01.228Z,127.500000
2022-11-19T08:49:01.145Z,127.500000
2022-11-19T08:50:05.487Z,132.500000
2022-11-19T08:51:01.122Z,132.500000
2022-11-19T08:52:01.230Z,130.000000
2022-11-19T08:53:01.136Z,130.000000
2022-11-19T08:54:01.239Z,120.000000
2022-11-19T08:55:09.288Z,120.000000
2022-11-19T08:56:01.211Z,120.000000
2022-11-19T08:57:01.200Z,117.500000
2022-11-19T08:58:01.226Z,117.500000
2022-11-19T08:59:02.893Z,117.500000
2022-11-19T09:00:06.539Z,120.000000
2022-11-19T09:01:00.258Z,120.000000
2022-11-19T09:02:00.292Z,120.000000
2022-11-19T09:03:00.227Z,122.500000
2022-11-19T09:04:00.313Z,122.500000
2022-11-19T09:05:05.059Z,122.500000
2022-11-19T09:06:00.347Z,122.500000
2022-11-19T09:07:00.365Z,132.500000
2022-11-19T09:08:00.339Z,132.500000
2022-11-19T09:09:00.289Z,132.500000
2022-11-19T09:10:04.685Z,120.000000
2022-11-19T09:11:00.362Z,120.000000
2022-11-19T09:12:00.397Z,120.000000
2022-11-19T09:13:00.342Z,110.000000
2022-11-19T09:14:00.372Z,110.000000
2022-11-19T09:15:04.569Z,122.500000
2022-11-19T09:16:00.403Z,122.500000
2022-11-19T09:17:00.371Z,122.500000
2022-11-19T09:18:00.471Z,122.500000
2022-11-19T09:19:00.357Z,122.500000
2022-11-19T09:20:05.051Z,115.000000
2022-11-19T09:21:00.382Z,115.000000
2022-11-19T09:22:00.446Z,115.000000
2022-11-19T09:23:00.403Z,112.500000
2022-11-19T09:24:00.455Z,112.500000
2022-11-19T09:25:08.485Z,112.500000
2022-11-19T09:26:00.472Z,112.500000
2022-11-19T09:27:02.383Z,112.500000
2022-11-19T09:28:00.497Z,120.000000
2022-11-19T09:29:00.557Z,120.000000
2022-11-19T09:30:04.842Z,115.000000
2022-11-19T09:31:00.444Z,115.000000
2022-11-19T09:32:00.515Z,115.000000
2022-11-19T09:33:00.464Z,115.000000
2022-11-19T09:34:00.546Z,115.000000
2022-11-19T09:35:07.595Z,125.000000
2022-11-19T09:36:00.551Z,125.000000
2022-11-19T09:37:00.502Z,127.500000
2022-11-19T09:38:00.574Z,127.500000
2022-11-19T09:39:00.493Z,127.500000
2022-11-19T09:40:03.817Z,120.000000
2022-11-19T09:41:00.548Z,120.000000
2022-11-19T09:42:00.600Z,120.000000
2022-11-19T09:43:00.536Z,132.500000
2022-11-19T09:44:00.621Z,132.500000
2022-11-19T09:45:08.686Z,132.500000
2022-11-19T09:46:00.613Z,132.500000
2022-11-19T09:47:00.581Z,132.500000
2022-11-19T09:48:00.635Z,122.500000
2022-11-19T09:49:00.570Z,122.500000
2022-11-19T09:50:03.895Z,125.000000
2022-11-19T09:51:00.588Z,125.000000
2022-11-19T09:52:00.662Z,125.000000
2022-11-19T09:53:00.618Z,120.000000
2022-11-19T09:54:00.674Z,120.000000
2022-11-19T09:55:03.783Z,120.000000
2022-11-19T09:56:00.702Z,117.500000
2022-11-19T09:57:04.349Z,117.500000
2022-11-19T09:58:00.715Z,120.000000
2022-11-19T09:59:00.675Z,120.000000
2022-11-19T10:00:06.125Z,120.000000
2022-11-19T10:01:00.714Z,127.500000
2022-11-19T10:02:00.759Z,127.500000
2022-11-19T10:03:00.754Z,127.500000
2022-11-19T10:04:00.789Z,127.500000
2022-11-19T10:05:03.648Z,127.500000
2022-11-19T10:06:00.817Z,107.500000
2022-11-19T10:07:00.898Z,107.500000
2022-11-19T10:08:00.793Z,107.500000
2022-11-19T10:09:00.770Z,107.500000
2022-11-19T10:10:07.838Z,107.500000
2022-11-19T10:11:00.851Z,120.000000
2022-11-19T10:12:00.862Z,120.000000
2022-11-19T10:13:00.801Z,130.000000
2022-11-19T10:14:00.865Z,130.000000
2022-11-19T10:15:03.882Z,130.000000
2022-11-19T10:16:00.917Z,117.500000
2022-11-19T10:17:00.878Z,117.500000
2022-11-19T10:18:00.916Z,117.500000
2022-11-19T10:19:00.920Z,117.500000
2022-11-19T10:20:05.506Z,117.500000
2022-11-19T10:21:00.855Z,127.500000
2022-11-19T10:22:00.971Z,127.500000
2022-11-19T10:23:00.883Z,127.500000
2022-11-19T10:24:00.955Z,115.000000
2022-11-19T10:25:05.243Z,115.000000
2022-11-19T10:26:00.949Z,125.000000
2022-11-19T10:27:05.739Z,125.000000
2022-11-19T10:28:00.983Z,125.000000
2022-11-19T10:29:00.932Z,135.000000
2022-11-19T10:30:05.444Z,135.000000
2022-11-19T10:31:01.082Z,122.500000
2022-11-19T10:32:00.989Z,122.500000
2022-11-19T10:33:01.066Z,122.500000
2022-11-19T10:34:01.007Z,122.500000
2022-11-19T10:35:04.050Z,122.500000
2022-11-19T10:36:01.042Z,125.000000
2022-11-19T10:37:00.958Z,125.000000
2022-11-19T10:38:01.040Z,125.000000
2022-11-19T10:39:00.987Z,115.000000
2022-11-19T10:40:05.410Z,115.000000
2022-11-19T10:41:00.994Z,115.000000
2022-11-19T10:42:01.087Z,120.000000
2022-11-19T10:43:01.015Z,120.000000
2022-11-19T10:44:01.085Z,140.000000
2022-11-19T10:45:05.243Z,140.000000
2022-11-19T10:46:01.148Z,120.000000
2022-11-19T10:47:01.096Z,120.000000
2022-11-19T10:48:05.933Z,105.000000
2022-11-19T10:49:01.193Z,105.000000
2022-11-19T10:50:10.944Z,105.000000
2022-11-19T10:51:01.128Z,105.000000
2022-11-19T10:52:01.178Z,105.000000
2022-11-19T10:53:01.098Z,105.000000
2022-11-19T10:54:01.175Z,105.000000
2022-11-19T10:55:05.706Z,105.000000
2022-11-19T10:56:01.184Z,122.500000
2022-11-19T10:57:01.129Z,122.500000
2022-11-19T10:58:01.254Z,125.000000
2022-11-19T10:59:01.164Z,125.000000
2022-11-19T11:00:04.515Z,125.000000
2022-11-19T11:01:01.599Z,120.000000
2022-11-19T11:02:01.247Z,120.000000
2022-11-19T11:03:01.286Z,120.000000
2022-11-19T11:04:00.323Z,117.500000
2022-11-19T11:05:04.448Z,117.500000
2022-11-19T11:06:00.313Z,117.500000
2022-11-19T11:07:00.339Z,120.000000